Aviation Digital Data Service (ADDS)

Output produced by METARs form (1148 UTC 18 June 2019)
found at http://www.aviationweather.gov/metar/data/
 
METAR text: VTSG 181100Z VRB02KT 9999 SCT020 BKN100 25/24 Q1009 NOSIG
Conditions at: VTSG (KRABI , TH) observed 1100 UTC 18 June 2019
Temperature: 25.0°C (77°F)
Dewpoint: 24.0°C (75°F) [RH = 94%]
Pressure (altimeter): 29.79 inches Hg (1009.0 mb)
Winds: variable direction winds at 2 MPH (2 knots; 1.0 m/s)
Visibility: 6 or more miles (10+ km)
Ceiling: 10000 feet AGL
Clouds: scattered clouds at 2000 feet AGL
broken clouds at 10000 feet AGL
Weather: no significant weather observed at this time

METAR text: VTSG 181000Z VRB02KT 9999 SCT020 BKN100 26/24 Q1009 NOSIG
Conditions at: VTSG (KRABI , TH) observed 1000 UTC 18 June 2019
Temperature: 26.0°C (79°F)
Dewpoint: 24.0°C (75°F) [RH = 89%]
Pressure (altimeter): 29.79 inches Hg (1009.0 mb)
Winds: variable direction winds at 2 MPH (2 knots; 1.0 m/s)
Visibility: 6 or more miles (10+ km)
Ceiling: 10000 feet AGL
Clouds: scattered clouds at 2000 feet AGL
broken clouds at 10000 feet AGL
Weather: no significant weather observed at this time

METAR text: VTSG 180900Z 25004KT 170V290 9999 BKN020 BKN100 25/24 Q1009 NOSIG
Conditions at: VTSG (KRABI , TH) observed 0900 UTC 18 June 2019
Temperature: 25.0°C (77°F)
Dewpoint: 24.0°C (75°F) [RH = 94%]
Pressure (altimeter): 29.79 inches Hg (1009.0 mb)
Winds: from the WSW (250 degrees) at 5 MPH (4 knots; 2.1 m/s)
Visibility: 6 or more miles (10+ km)
Ceiling: 2000 feet AGL
Clouds: broken clouds at 2000 feet AGL
broken clouds at 10000 feet AGL
Weather: no significant weather observed at this time

METAR text: VTSG 180800Z 27018G35KT 210V300 1500 +RA BKN010 OVC080 23/22 Q1009 TEMPO TL0815 3000 RA
Conditions at: VTSG (KRABI , TH) observed 0800 UTC 18 June 2019
Temperature: 23.0°C (73°F)
Dewpoint: 22.0°C (72°F) [RH = 94%]
Pressure (altimeter): 29.79 inches Hg (1009.0 mb)
Winds: from the W (270 degrees) at 21 MPH (18 knots; 9.3 m/s)
gusting to 40 MPH (35 knots; 18.0 m/s)
Visibility: 0.93 miles (1.50 km)
Ceiling: 1000 feet AGL
Clouds: broken clouds at 1000 feet AGL
overcast cloud deck at 8000 feet AGL
Weather: +RA  (heavy rain)

METAR text: VTSG 180700Z 21007KT 170V250 9999 SCT020 BKN100 31/25 Q1009 NOSIG
Conditions at: VTSG (KRABI , TH) observed 0700 UTC 18 June 2019
Temperature: 31.0°C (88°F)
Dewpoint: 25.0°C (77°F) [RH = 71%]
Pressure (altimeter): 29.79 inches Hg (1009.0 mb)
Winds: from the SSW (210 degrees) at 8 MPH (7 knots; 3.6 m/s)
Visibility: 6 or more miles (10+ km)
Ceiling: 10000 feet AGL
Clouds: scattered clouds at 2000 feet AGL
broken clouds at 10000 feet AGL
Weather: no significant weather observed at this time

METAR text: VTSG 180600Z 28008KT 240V340 9999 SCT020 BKN100 31/25 Q1010 NOSIG
Conditions at: VTSG (KRABI , TH) observed 0600 UTC 18 June 2019
Temperature: 31.0°C (88°F)
Dewpoint: 25.0°C (77°F) [RH = 71%]
Pressure (altimeter): 29.82 inches Hg (1010.0 mb)
Winds: from the W (280 degrees) at 9 MPH (8 knots; 4.1 m/s)
Visibility: 6 or more miles (10+ km)
Ceiling: 10000 feet AGL
Clouds: scattered clouds at 2000 feet AGL
broken clouds at 10000 feet AGL
Weather: no significant weather observed at this time

METAR text: VTSG 180500Z VRB03KT 9999 SCT020 BKN100 30/24 Q1010 NOSIG
Conditions at: VTSG (KRABI , TH) observed 0500 UTC 18 June 2019
Temperature: 30.0°C (86°F)
Dewpoint: 24.0°C (75°F) [RH = 70%]
Pressure (altimeter): 29.82 inches Hg (1010.0 mb)
Winds: variable direction winds at 3 MPH (3 knots; 1.5 m/s)
Visibility: 6 or more miles (10+ km)
Ceiling: 10000 feet AGL
Clouds: scattered clouds at 2000 feet AGL
broken clouds at 10000 feet AGL
Weather: no significant weather observed at this time

METAR text: VTSG 180400Z 20004KT 170V240 9000 SCT020 BKN100 27/24 Q1011 NOSIG
Conditions at: VTSG (KRABI , TH) observed 0400 UTC 18 June 2019
Temperature: 27.0°C (81°F)
Dewpoint: 24.0°C (75°F) [RH = 84%]
Pressure (altimeter): 29.85 inches Hg (1011.0 mb)
Winds: from the SSW (200 degrees) at 5 MPH (4 knots; 2.1 m/s)
Visibility: 6 miles ( 9 km)
Ceiling: 10000 feet AGL
Clouds: scattered clouds at 2000 feet AGL
broken clouds at 10000 feet AGL
Weather: no significant weather observed at this time

METAR text: VTSG 180300Z 25005KT 220V280 8000 -RA SCT015 BKN100 26/24 Q1011 NOSIG
Conditions at: VTSG (KRABI , TH) observed 0300 UTC 18 June 2019
Temperature: 26.0°C (79°F)
Dewpoint: 24.0°C (75°F) [RH = 89%]
Pressure (altimeter): 29.85 inches Hg (1011.0 mb)
Winds: from the WSW (250 degrees) at 6 MPH (5 knots; 2.6 m/s)
Visibility: 5 miles ( 8 km)
Ceiling: 10000 feet AGL
Clouds: scattered clouds at 1500 feet AGL
broken clouds at 10000 feet AGL
Weather: -RA  (light rain)

METAR text: VTSG 180200Z 22008KT 190V260 7000 -RA BKN010 BKN100 25/24 Q1011 RERA NOSIG
Conditions at: VTSG (KRABI , TH) observed 0200 UTC 18 June 2019
Temperature: 25.0°C (77°F)
Dewpoint: 24.0°C (75°F) [RH = 94%]
Pressure (altimeter): 29.85 inches Hg (1011.0 mb)
Winds: from the SW (220 degrees) at 9 MPH (8 knots; 4.1 m/s)
Visibility: 4 miles ( 7 km)
Ceiling: 1000 feet AGL
Clouds: broken clouds at 1000 feet AGL
broken clouds at 10000 feet AGL
Weather: -RA  (light rain)

METAR text: VTSG 180100Z 15004KT 080V210 9000 -RA SCT020 BKN100 24/24 Q1009 TEMPO TL0130 3000 +RA
Conditions at: VTSG (KRABI , TH) observed 0100 UTC 18 June 2019
Temperature: 24.0°C (75°F)
Dewpoint: 24.0°C (75°F) [RH = 100%]
Pressure (altimeter): 29.79 inches Hg (1009.0 mb)
Winds: from the SSE (150 degrees) at 5 MPH (4 knots; 2.1 m/s)
Visibility: 6 miles ( 9 km)
Ceiling: 10000 feet AGL
Clouds: scattered clouds at 2000 feet AGL
broken clouds at 10000 feet AGL
Weather: -RA  (light rain)

METAR text: VTSG 180000Z VRB02KT 9000 BCFG SCT020 BKN100 24/24 Q1009 TEMPO FM0130 TL0200 3000 +RA
Conditions at: VTSG (KRABI , TH) observed 0000 UTC 18 June 2019
Temperature: 24.0°C (75°F)
Dewpoint: 24.0°C (75°F) [RH = 100%]
Pressure (altimeter): 29.79 inches Hg (1009.0 mb)
Winds: variable direction winds at 2 MPH (2 knots; 1.0 m/s)
Visibility: 6 miles ( 9 km)
Ceiling: 10000 feet AGL
Clouds: scattered clouds at 2000 feet AGL
broken clouds at 10000 feet AGL
Weather: BCFG  (patches of fog)

METAR text: VTSG 172300Z 10002KT 7000 BCFG FEW020 SCT100 24/23 Q1009 NOSIG
Conditions at: VTSG (KRABI , TH) observed 2300 UTC 17 June 2019
Temperature: 24.0°C (75°F)
Dewpoint: 23.0°C (73°F) [RH = 94%]
Pressure (altimeter): 29.79 inches Hg (1009.0 mb)
Winds: from the E (100 degrees) at 2 MPH (2 knots; 1.0 m/s)
Visibility: 4 miles ( 7 km)
Ceiling: at least 12,000 feet AGL
Clouds: few clouds at 2000 feet AGL
scattered clouds at 10000 feet AGL
Weather: BCFG  (patches of fog)

METAR text: VTSG 172200Z 00000KT 8000 FEW020 BKN100 24/23 Q1009 NOSIG
Conditions at: VTSG (KRABI , TH) observed 2200 UTC 17 June 2019
Temperature: 24.0°C (75°F)
Dewpoint: 23.0°C (73°F) [RH = 94%]
Pressure (altimeter): 29.79 inches Hg (1009.0 mb)
Winds: calm
Visibility: 5 miles ( 8 km)
Ceiling: 10000 feet AGL
Clouds: few clouds at 2000 feet AGL
broken clouds at 10000 feet AGL
Weather: no significant weather observed at this time

METAR text: VTSG 172100Z 10005KT 8000 SCT020 OVC100 24/24 Q1009 NOSIG
Conditions at: VTSG (KRABI , TH) observed 2100 UTC 17 June 2019
Temperature: 24.0°C (75°F)
Dewpoint: 24.0°C (75°F) [RH = 100%]
Pressure (altimeter): 29.79 inches Hg (1009.0 mb)
Winds: from the E (100 degrees) at 6 MPH (5 knots; 2.6 m/s)
Visibility: 5 miles ( 8 km)
Ceiling: 10000 feet AGL
Clouds: scattered clouds at 2000 feet AGL
overcast cloud deck at 10000 feet AGL
Weather: no significant weather observed at this time

METAR text: VTSG 172000Z 18006G20KT 130V250 5000 RA SCT020 BKN100 26/25 Q1009 BECMG TL2030 8000 -RA
Conditions at: VTSG (KRABI , TH) observed 2000 UTC 17 June 2019
Temperature: 26.0°C (79°F)
Dewpoint: 25.0°C (77°F) [RH = 94%]
Pressure (altimeter): 29.79 inches Hg (1009.0 mb)
Winds: from the S (180 degrees) at 7 MPH (6 knots; 3.1 m/s)
gusting to 23 MPH (20 knots; 10.3 m/s)
Visibility: 3 miles ( 5 km)
Ceiling: 10000 feet AGL
Clouds: scattered clouds at 2000 feet AGL
broken clouds at 10000 feet AGL
Weather: RA  (moderate rain)

METAR text: VTSG 171900Z 00000KT 7000 SCT020 BKN100 26/26 Q1010 NOSIG
Conditions at: VTSG (KRABI , TH) observed 1900 UTC 17 June 2019
Temperature: 26.0°C (79°F)
Dewpoint: 26.0°C (79°F) [RH = 100%]
Pressure (altimeter): 29.82 inches Hg (1010.0 mb)
Winds: calm
Visibility: 4 miles ( 7 km)
Ceiling: 10000 feet AGL
Clouds: scattered clouds at 2000 feet AGL
broken clouds at 10000 feet AGL
Weather: no significant weather observed at this time

METAR text: VTSG 171800Z VRB02KT 8000 FEW020 BKN100 26/26 Q1011 NOSIG
Conditions at: VTSG (KRABI , TH) observed 1800 UTC 17 June 2019
Temperature: 26.0°C (79°F)
Dewpoint: 26.0°C (79°F) [RH = 100%]
Pressure (altimeter): 29.85 inches Hg (1011.0 mb)
Winds: variable direction winds at 2 MPH (2 knots; 1.0 m/s)
Visibility: 5 miles ( 8 km)
Ceiling: 10000 feet AGL
Clouds: few clouds at 2000 feet AGL
broken clouds at 10000 feet AGL
Weather: no significant weather observed at this time

METAR text: VTSG 171700Z 09003KT 030V140 8000 FEW020 BKN100 26/26 Q1011 NOSIG
Conditions at: VTSG (KRABI , TH) observed 1700 UTC 17 June 2019
Temperature: 26.0°C (79°F)
Dewpoint: 26.0°C (79°F) [RH = 100%]
Pressure (altimeter): 29.85 inches Hg (1011.0 mb)
Winds: from the E (90 degrees) at 3 MPH (3 knots; 1.5 m/s)
Visibility: 5 miles ( 8 km)
Ceiling: 10000 feet AGL
Clouds: few clouds at 2000 feet AGL
broken clouds at 10000 feet AGL
Weather: no significant weather observed at this time

METAR text: VTSG 171600Z 00000KT 8000 SCT018 BKN100 27/26 Q1011 NOSIG
Conditions at: VTSG (KRABI , TH) observed 1600 UTC 17 June 2019
Temperature: 27.0°C (81°F)
Dewpoint: 26.0°C (79°F) [RH = 94%]
Pressure (altimeter): 29.85 inches Hg (1011.0 mb)
Winds: calm
Visibility: 5 miles ( 8 km)
Ceiling: 10000 feet AGL
Clouds: scattered clouds at 1800 feet AGL
broken clouds at 10000 feet AGL
Weather: no significant weather observed at this time

METAR text: VTSG 171500Z VRB02KT 8000 FEW018 BKN100 27/26 Q1011 NOSIG
Conditions at: VTSG (KRABI , TH) observed 1500 UTC 17 June 2019
Temperature: 27.0°C (81°F)
Dewpoint: 26.0°C (79°F) [RH = 94%]
Pressure (altimeter): 29.85 inches Hg (1011.0 mb)
Winds: variable direction winds at 2 MPH (2 knots; 1.0 m/s)
Visibility: 5 miles ( 8 km)
Ceiling: 10000 feet AGL
Clouds: few clouds at 1800 feet AGL
broken clouds at 10000 feet AGL
Weather: no significant weather observed at this time

METAR text: VTSG 171400Z 00000KT 9999 FEW018 BKN100 27/26 Q1010 NOSIG
Conditions at: VTSG (KRABI , TH) observed 1400 UTC 17 June 2019
Temperature: 27.0°C (81°F)
Dewpoint: 26.0°C (79°F) [RH = 94%]
Pressure (altimeter): 29.82 inches Hg (1010.0 mb)
Winds: calm
Visibility: 6 or more miles (10+ km)
Ceiling: 10000 feet AGL
Clouds: few clouds at 1800 feet AGL
broken clouds at 10000 feet AGL
Weather: no significant weather observed at this time

METAR text: VTSG 171300Z VRB02KT 9999 FEW018 BKN100 28/26 Q1009 NOSIG
Conditions at: VTSG (KRABI , TH) observed 1300 UTC 17 June 2019
Temperature: 28.0°C (82°F)
Dewpoint: 26.0°C (79°F) [RH = 89%]
Pressure (altimeter): 29.79 inches Hg (1009.0 mb)
Winds: variable direction winds at 2 MPH (2 knots; 1.0 m/s)
Visibility: 6 or more miles (10+ km)
Ceiling: 10000 feet AGL
Clouds: few clouds at 1800 feet AGL
broken clouds at 10000 feet AGL
Weather: no significant weather observed at this time

METAR text: VTSG 171200Z 25003KT 210V310 9999 FEW018 BKN100 29/26 Q1009 NOSIG
Conditions at: VTSG (KRABI , TH) observed 1200 UTC 17 June 2019
Temperature: 29.0°C (84°F)
Dewpoint: 26.0°C (79°F) [RH = 84%]
Pressure (altimeter): 29.79 inches Hg (1009.0 mb)
Winds: from the WSW (250 degrees) at 3 MPH (3 knots; 1.5 m/s)
Visibility: 6 or more miles (10+ km)
Ceiling: 10000 feet AGL
Clouds: few clouds at 1800 feet AGL
broken clouds at 10000 feet AGL
Weather: no significant weather observed at this time

METAR text: VTSG 171100Z VRB02KT 9999 FEW018 BKN100 29/26 Q1008 NOSIG
Conditions at: VTSG (KRABI , TH) observed 1100 UTC 17 June 2019
Temperature: 29.0°C (84°F)
Dewpoint: 26.0°C (79°F) [RH = 84%]
Pressure (altimeter): 29.76 inches Hg (1008.0 mb)
Winds: variable direction winds at 2 MPH (2 knots; 1.0 m/s)
Visibility: 6 or more miles (10+ km)
Ceiling: 10000 feet AGL
Clouds: few clouds at 1800 feet AGL
broken clouds at 10000 feet AGL
Weather: no significant weather observed at this time

METAR text: VTSG 171000Z 24004KT 210V270 9999 FEW018 BKN100 29/25 Q1008 NOSIG
Conditions at: VTSG (KRABI , TH) observed 1000 UTC 17 June 2019
Temperature: 29.0°C (84°F)
Dewpoint: 25.0°C (77°F) [RH = 79%]
Pressure (altimeter): 29.76 inches Hg (1008.0 mb)
Winds: from the WSW (240 degrees) at 5 MPH (4 knots; 2.1 m/s)
Visibility: 6 or more miles (10+ km)
Ceiling: 10000 feet AGL
Clouds: few clouds at 1800 feet AGL
broken clouds at 10000 feet AGL
Weather: no significant weather observed at this time

METAR text: VTSG 170900Z 24006KT 9999 SCT018 BKN100 31/26 Q1008 NOSIG
Conditions at: VTSG (KRABI , TH) observed 0900 UTC 17 June 2019
Temperature: 31.0°C (88°F)
Dewpoint: 26.0°C (79°F) [RH = 75%]
Pressure (altimeter): 29.76 inches Hg (1008.0 mb)
Winds: from the WSW (240 degrees) at 7 MPH (6 knots; 3.1 m/s)
Visibility: 6 or more miles (10+ km)
Ceiling: 10000 feet AGL
Clouds: scattered clouds at 1800 feet AGL
broken clouds at 10000 feet AGL
Weather: no significant weather observed at this time

METAR text: VTSG 170800Z 23005KT 150V280 9999 SCT018 BKN100 31/26 Q1008 NOSIG
Conditions at: VTSG (KRABI , TH) observed 0800 UTC 17 June 2019
Temperature: 31.0°C (88°F)
Dewpoint: 26.0°C (79°F) [RH = 75%]
Pressure (altimeter): 29.76 inches Hg (1008.0 mb)
Winds: from the SW (230 degrees) at 6 MPH (5 knots; 2.6 m/s)
Visibility: 6 or more miles (10+ km)
Ceiling: 10000 feet AGL
Clouds: scattered clouds at 1800 feet AGL
broken clouds at 10000 feet AGL
Weather: no significant weather observed at this time

METAR text: VTSG 170700Z 23007KT 200V270 9999 -RA SCT018 BKN100 31/27 Q1009 NOSIG
Conditions at: VTSG (KRABI , TH) observed 0700 UTC 17 June 2019
Temperature: 31.0°C (88°F)
Dewpoint: 27.0°C (81°F) [RH = 79%]
Pressure (altimeter): 29.79 inches Hg (1009.0 mb)
Winds: from the SW (230 degrees) at 8 MPH (7 knots; 3.6 m/s)
Visibility: 6 or more miles (10+ km)
Ceiling: 10000 feet AGL
Clouds: scattered clouds at 1800 feet AGL
broken clouds at 10000 feet AGL
Weather: -RA  (light rain)

METAR text: VTSG 170600Z 20005KT 170V240 9999 FEW018 BKN100 31/27 Q1010 NOSIG
Conditions at: VTSG (KRABI , TH) observed 0600 UTC 17 June 2019
Temperature: 31.0°C (88°F)
Dewpoint: 27.0°C (81°F) [RH = 79%]
Pressure (altimeter): 29.82 inches Hg (1010.0 mb)
Winds: from the SSW (200 degrees) at 6 MPH (5 knots; 2.6 m/s)
Visibility: 6 or more miles (10+ km)
Ceiling: 10000 feet AGL
Clouds: few clouds at 1800 feet AGL
broken clouds at 10000 feet AGL
Weather: no significant weather observed at this time

METAR text: VTSG 170500Z 25007KT 210V290 9999 SCT020 BKN100 31/25 Q1010 NOSIG
Conditions at: VTSG (KRABI , TH) observed 0500 UTC 17 June 2019
Temperature: 31.0°C (88°F)
Dewpoint: 25.0°C (77°F) [RH = 71%]
Pressure (altimeter): 29.82 inches Hg (1010.0 mb)
Winds: from the WSW (250 degrees) at 8 MPH (7 knots; 3.6 m/s)
Visibility: 6 or more miles (10+ km)
Ceiling: 10000 feet AGL
Clouds: scattered clouds at 2000 feet AGL
broken clouds at 10000 feet AGL
Weather: no significant weather observed at this time

METAR text: VTSG 170400Z 26008KT 230V290 9999 FEW018 BKN020 32/26 Q1011 NOSIG
Conditions at: VTSG (KRABI , TH) observed 0400 UTC 17 June 2019
Temperature: 32.0°C (90°F)
Dewpoint: 26.0°C (79°F) [RH = 71%]
Pressure (altimeter): 29.85 inches Hg (1011.0 mb)
Winds: from the W (260 degrees) at 9 MPH (8 knots; 4.1 m/s)
Visibility: 6 or more miles (10+ km)
Ceiling: 2000 feet AGL
Clouds: few clouds at 1800 feet AGL
broken clouds at 2000 feet AGL
Weather: no significant weather observed at this time

METAR text: VTSG 170300Z 24007KT 210V290 9999 SCT020 31/26 Q1011 NOSIG
Conditions at: VTSG (KRABI , TH) observed 0300 UTC 17 June 2019
Temperature: 31.0°C (88°F)
Dewpoint: 26.0°C (79°F) [RH = 75%]
Pressure (altimeter): 29.85 inches Hg (1011.0 mb)
Winds: from the WSW (240 degrees) at 8 MPH (7 knots; 3.6 m/s)
Visibility: 6 or more miles (10+ km)
Ceiling: at least 12,000 feet AGL
Clouds: scattered clouds at 2000 feet AGL
Weather: no significant weather observed at this time

METAR text: VTSG 170200Z 28003KT 240V310 9999 SCT020 30/27 Q1011 NOSIG
Conditions at: VTSG (KRABI , TH) observed 0200 UTC 17 June 2019
Temperature: 30.0°C (86°F)
Dewpoint: 27.0°C (81°F) [RH = 84%]
Pressure (altimeter): 29.85 inches Hg (1011.0 mb)
Winds: from the W (280 degrees) at 3 MPH (3 knots; 1.5 m/s)
Visibility: 6 or more miles (10+ km)
Ceiling: at least 12,000 feet AGL
Clouds: scattered clouds at 2000 feet AGL
Weather: no significant weather observed at this time

METAR text: VTSG 170100Z 00000KT 8000 SCT020 27/27 Q1010 NOSIG
Conditions at: VTSG (KRABI , TH) observed 0100 UTC 17 June 2019
Temperature: 27.0°C (81°F)
Dewpoint: 27.0°C (81°F) [RH = 100%]
Pressure (altimeter): 29.82 inches Hg (1010.0 mb)
Winds: calm
Visibility: 5 miles ( 8 km)
Ceiling: at least 12,000 feet AGL
Clouds: scattered clouds at 2000 feet AGL
Weather: no significant weather observed at this time

METAR text: VTSG 170000Z 00000KT 8000 FEW020 BKN100 25/25 Q1009 NOSIG
Conditions at: VTSG (KRABI , TH) observed 0000 UTC 17 June 2019
Temperature: 25.0°C (77°F)
Dewpoint: 25.0°C (77°F) [RH = 100%]
Pressure (altimeter): 29.79 inches Hg (1009.0 mb)
Winds: calm
Visibility: 5 miles ( 8 km)
Ceiling: 10000 feet AGL
Clouds: few clouds at 2000 feet AGL
broken clouds at 10000 feet AGL
Weather: no significant weather observed at this time

Forecast for: VTSG (KRABI , TH)
Text: TAF VTSG 181100Z 1812/1912 24004KT 9999 FEW020 SCT100
Forecast period: 1200 UTC 18 June 2019 to 1200 UTC 19 June 2019
Forecast type: FROM: standard forecast or significant change
Winds: from the WSW (240 degrees) at 5 MPH (4 knots; 2.1 m/s)
Visibility: 6 or more miles 10+ km)
Ceiling: at least 12,000 feet AGL
Clouds: few clouds at 2000 feet AGL
scattered clouds at 10000 feet AGL
Weather: no significant weather forecast for this period
Text: TEMPO 1820/1902 24015G25KT 5000 TSRA FEW018CB SCT020 BKN100
Forecast period: 2000 UTC 18 June 2019 to 0200 UTC 19 June 2019
Forecast type: TEMPORARY: The following changes expected for less than half the time period
Winds: from the WSW (240 degrees) at 17 MPH (15 knots; 7.7 m/s)
gusting to 29 MPH (25 knots; 12.9 m/s)
Visibility: 3 miles (5 km)
Ceiling: 10000 feet AGL
Clouds: few clouds at 1800 feet AGL
scattered clouds at 2000 feet AGL
broken clouds at 10000 feet AGL
Weather: TSRA  (rain associated with thunderstorm(s))